Time;durP1;ratioP1;P1;durP2;ratioP2;P2;SDS_P1;SDS_P2;PMS_P1;PMS_P2;Temp;Humidity;BMP_temperature;BMP_pressure;BME280_temperature;BME280_humidity;BME280_pressure;Samples;Min_cycle;Max_cycle;Signal;HPM_P1;HPM_P2
2023/08/30 00:00:45;;;;;;;10.73;9.73;;;;;;;;;;6242823;22;20102;-45
2023/08/30 00:03:12;;;;;;;11.18;10.02;;;;;;;;;;6241487;23;20044;-43
2023/08/30 00:05:41;;;;;;;11.13;10.13;;;;;;;;;;6243814;22;20027;-45
2023/08/30 00:08:07;;;;;;;10.73;9.75;;;;;;;;;;6241061;23;20024;-43
2023/08/30 00:10:33;;;;;;;10.95;9.90;;;;;;;;;;6242269;23;20419;-43
2023/08/30 00:13:00;;;;;;;10.85;9.77;;;;;;;;;;6241024;23;20016;-43
2023/08/30 00:15:26;;;;;;;11.52;10.43;;;;;;;;;;6241360;23;20020;-45
2023/08/30 00:17:51;;;;;;;11.55;10.40;;;13.40;99.90;;;;;;6243390;23;20035;-44
2023/08/30 00:20:18;;;;;;;10.27;9.00;;;13.30;99.90;;;;;;6243703;22;20020;-43
2023/08/30 00:22:44;;;;;;;13.13;10.05;;;13.20;99.90;;;;;;6243596;22;20016;-43
2023/08/30 00:25:09;;;;;;;11.40;9.82;;;13.20;99.90;;;;;;6244208;23;20014;-44
2023/08/30 00:27:35;;;;;;;10.75;9.75;;;13.20;99.90;;;;;;6242759;23;20073;-43
2023/08/30 00:30:00;;;;;;;11.00;9.88;;;13.10;99.90;;;;;;6242172;23;20393;-44
2023/08/30 00:32:26;;;;;;;12.05;10.43;;;13.10;99.90;;;;;;6245939;23;20066;-44
2023/08/30 00:34:52;;;;;;;11.60;10.50;;;13.10;99.90;;;;;;6245265;23;20440;-44
2023/08/30 00:37:17;;;;;;;11.02;10.02;;;13.10;99.90;;;;;;6245091;23;20023;-43
2023/08/30 00:39:43;;;;;;;10.48;9.52;;;13.10;99.90;;;;;;6245560;23;20023;-46
2023/08/30 00:42:09;;;;;;;11.27;10.15;;;13.10;99.90;;;;;;6245264;23;20018;-43
2023/08/30 00:44:35;;;;;;;11.30;10.27;;;13.10;99.90;;;;;;6245320;23;20013;-43
2023/08/30 00:47:03;;;;;;;12.43;11.20;;;13.10;99.90;;;;;;6244915;22;20016;-42
2023/08/30 00:49:33;;;;;;;11.90;10.70;;;13.10;99.90;;;;;;6244622;22;20524;-42
2023/08/30 00:52:05;;;;;;;11.88;10.43;;;13.10;99.90;;;;;;6243062;23;20309;-43
2023/08/30 00:54:31;;;;;;;11.80;10.60;;;13.10;99.90;;;;;;6244666;22;20550;-44
2023/08/30 00:56:57;;;;;;;11.63;10.43;;;13.10;99.90;;;;;;6244692;22;20452;-42
2023/08/30 00:59:24;;;;;;;11.10;9.98;;;13.10;99.90;;;;;;6244600;23;20024;-43
2023/08/30 01:01:50;;;;;;;11.57;10.48;;;13.10;99.90;;;;;;6244339;22;20371;-46
2023/08/30 01:04:16;;;;;;;12.65;11.35;;;13.10;99.90;;;;;;6242256;22;20336;-45
2023/08/30 01:06:42;;;;;;;12.55;11.35;;;13.10;99.90;;;;;;6242230;22;20197;-44
2023/08/30 01:09:09;;;;;;;12.18;11.07;;;13.10;99.90;;;;;;6242454;23;20044;-43
2023/08/30 01:11:43;;;;;;;12.35;11.15;;;13.10;99.90;;;;;;6242758;22;20024;-42
2023/08/30 01:14:13;;;;;;;12.73;11.25;;;13.00;99.90;;;;;;6239537;22;20020;-42
2023/08/30 01:16:39;;;;;;;12.57;11.35;;;13.00;99.90;;;;;;6237104;23;20107;-43
2023/08/30 01:19:29;;;;;;;12.90;11.70;;;12.90;99.90;;;;;;6240351;22;20044;-42
2023/08/30 01:22:15;;;;;;;13.82;11.30;;;12.90;99.90;;;;;;6242881;22;20016;-42
2023/08/30 01:25:14;;;;;;;12.85;11.65;;;12.80;99.90;;;;;;6244329;22;20082;-42
2023/08/30 01:27:40;;;;;;;13.52;12.23;;;12.80;99.90;;;;;;6244639;22;20062;-43
2023/08/30 01:30:08;;;;;;;14.30;12.90;;;;;;;;;;6244136;22;20008;-43
2023/08/30 01:32:35;;;;;;;13.35;12.02;;;;;;;;;;6246735;23;20095;-43
2023/08/30 01:35:01;;;;;;;12.93;11.63;;;12.70;99.90;;;;;;6246875;23;20016;-44
2023/08/30 01:37:28;;;;;;;13.68;11.95;;;12.60;99.90;;;;;;6246608;22;20262;-42
2023/08/30 01:39:56;;;;;;;13.07;11.68;;;12.60;99.90;;;;;;6246052;22;20028;-45
2023/08/30 01:42:24;;;;;;;12.95;11.63;;;12.50;99.90;;;;;;6246562;22;20134;-43
2023/08/30 01:44:51;;;;;;;12.25;11.15;;;12.50;99.90;;;;;;6244497;23;20059;-43
2023/08/30 01:47:18;;;;;;;13.88;12.57;;;12.40;99.90;;;;;;6246356;22;20024;-45
2023/08/30 01:49:45;;;;;;;13.57;12.27;;;12.40;99.90;;;;;;6246674;22;20377;-43
2023/08/30 01:52:11;;;;;;;13.75;12.45;;;12.40;99.90;;;;;;6246672;22;20016;-42
2023/08/30 01:54:40;;;;;;;13.05;11.77;;;12.40;99.90;;;;;;6246179;22;20509;-44
2023/08/30 01:57:05;;;;;;;13.02;11.73;;;12.30;99.90;;;;;;6246591;22;20449;-43
2023/08/30 01:59:31;;;;;;;12.68;11.48;;;;;;;;;;6246366;23;20096;-43
2023/08/30 02:01:57;;;;;;;12.52;11.43;;;;;;;;;;6244633;23;20353;-44
2023/08/30 02:04:23;;;;;;;13.07;11.80;;;;;;;;;;6243866;23;20016;-43
2023/08/30 02:06:55;;;;;;;13.70;12.43;;;;;;;;;;6243843;23;20028;-44
2023/08/30 02:09:40;;;;;;;13.55;12.18;;;;;;;;;;6243982;22;20012;-44
2023/08/30 02:12:10;;;;;;;13.55;12.15;;;;;;;;;;6244096;22;20012;-43
2023/08/30 02:14:37;;;;;;;13.30;11.93;;;;;;;;;;6243899;23;20019;-43
2023/08/30 02:17:03;;;;;;;14.88;13.35;;;;;;;;;;6243367;23;20471;-43
2023/08/30 02:19:29;;;;;;;14.23;12.70;;;;;;;;;;6241969;23;20016;-45
2023/08/30 02:21:55;;;;;;;14.57;13.15;;;;;;;;;;6242005;23;20020;-43
2023/08/30 02:24:21;;;;;;;15.25;13.68;;;;;;;;;;6240365;23;20138;-43
2023/08/30 02:26:47;;;;;;;14.35;12.23;;;;;;;;;;6241584;23;20289;-46
2023/08/30 02:29:14;;;;;;;14.13;12.77;;;;;;;;;;6242990;23;20563;-43
2023/08/30 02:31:40;;;;;;;14.27;12.83;;;;;;;;;;6244081;22;20091;-43
2023/08/30 02:34:06;;;;;;;13.98;12.65;;;;;;;;;;6243274;23;20062;-46
2023/08/30 02:36:32;;;;;;;13.70;12.40;;;;;;;;;;6243001;23;20442;-43
2023/08/30 02:38:58;;;;;;;14.35;12.90;;;;;;;;;;6242617;23;20016;-44
2023/08/30 02:41:24;;;;;;;14.05;12.68;;;;;;;;;;6243268;23;20087;-43
2023/08/30 02:43:50;;;;;;;14.60;13.10;;;;;;;;;;6244752;23;20462;-43
2023/08/30 02:46:16;;;;;;;14.45;13.05;;;;;;;;;;6243881;23;20016;-42
2023/08/30 02:48:42;;;;;;;15.27;13.77;;;;;;;;;;6242540;23;20095;-44
2023/08/30 02:51:08;;;;;;;14.65;13.10;;;;;;;;;;6243644;23;20388;-43
2023/08/30 02:53:34;;;;;;;14.73;13.15;;;;;;;;;;6243478;23;20016;-45
2023/08/30 02:56:00;;;;;;;14.45;12.95;;;;;;;;;;6243678;23;20130;-43
2023/08/30 02:58:26;;;;;;;13.45;12.13;;;;;;;;;;6245217;23;20134;-42
2023/08/30 03:00:53;;;;;;;12.57;11.27;;;;;;;;;;6245782;23;20024;-42
2023/08/30 03:03:19;;;;;;;13.45;12.15;;;;;;;;;;6245699;23;20024;-44
2023/08/30 03:05:45;;;;;;;13.15;11.77;;;;;;;;;;6245821;23;20078;-45
2023/08/30 03:08:11;;;;;;;13.20;11.90;;;;;;;;;;6245879;23;20024;-43
2023/08/30 03:10:37;;;;;;;13.52;12.25;;;;;;;;;;6245275;23;20016;-43
2023/08/30 03:13:03;;;;;;;13.70;11.85;;;;;;;;;;6240600;23;20020;-44
2023/08/30 03:15:32;;;;;;;12.90;11.57;;;;;;;;;;6241441;23;20479;-44
2023/08/30 03:17:58;;;;;;;13.43;12.23;;;12.50;99.90;;;;;;6245672;22;20016;-45
2023/08/30 03:20:23;;;;;;;14.40;12.05;;;12.70;99.90;;;;;;6245921;23;20305;-44
2023/08/30 03:22:49;;;;;;;12.80;11.50;;;12.50;99.90;;;;;;6245882;23;20023;-42
2023/08/30 03:25:14;;;;;;;12.82;11.52;;;12.50;99.90;;;;;;6244609;23;20016;-43
2023/08/30 03:27:40;;;;;;;13.60;11.70;;;12.50;99.90;;;;;;6240524;23;20027;-44
2023/08/30 03:30:06;;;;;;;13.05;11.75;;;12.50;99.90;;;;;;6239109;23;20460;-43
2023/08/30 03:32:32;;;;;;;12.15;10.73;;;12.40;99.90;;;;;;6241975;22;20391;-45
2023/08/30 03:34:58;;;;;;;13.52;12.23;;;12.40;99.90;;;;;;6243437;22;20044;-46
2023/08/30 03:37:23;;;;;;;13.43;12.15;;;12.30;99.90;;;;;;6243586;23;20041;-43
2023/08/30 03:39:49;;;;;;;12.82;11.73;;;12.20;99.90;;;;;;6243214;22;20162;-42
2023/08/30 03:42:15;;;;;;;13.75;12.48;;;12.20;99.90;;;;;;6243522;23;20019;-44
2023/08/30 03:44:40;;;;;;;13.35;12.05;;;12.10;99.90;;;;;;6243676;23;20087;-42
2023/08/30 03:47:06;;;;;;;14.38;12.40;;;12.10;99.90;;;;;;6243303;23;20016;-42
2023/08/30 03:49:31;;;;;;;13.00;11.68;;;12.10;99.90;;;;;;6242782;22;20012;-42
2023/08/30 03:51:57;;;;;;;13.48;12.18;;;12.10;99.90;;;;;;6243294;23;20008;-42
2023/08/30 03:54:23;;;;;;;14.32;12.07;;;12.10;99.90;;;;;;6242693;23;20038;-44
2023/08/30 03:56:48;;;;;;;14.95;13.45;;;12.00;99.90;;;;;;6243503;22;20023;-46
2023/08/30 03:59:14;;;;;;;14.98;13.40;;;12.00;99.90;;;;;;6215871;23;20460;-42
2023/08/30 04:01:40;;;;;;;15.35;12.75;;;12.00;99.90;;;;;;6243282;23;20100;-43
2023/08/30 04:04:05;;;;;;;14.23;12.73;;;12.00;99.90;;;;;;6242754;23;20515;-42
2023/08/30 04:06:31;;;;;;;13.95;12.48;;;11.90;99.90;;;;;;6242796;23;20444;-46
2023/08/30 04:08:57;;;;;;;13.63;12.35;;;12.00;99.90;;;;;;6242285;23;20437;-44
2023/08/30 04:11:23;;;;;;;13.93;12.50;;;12.00;99.90;;;;;;6241300;23;20016;-49
2023/08/30 04:13:49;;;;;;;15.05;13.40;;;11.90;99.90;;;;;;6241518;22;20016;-45
2023/08/30 04:16:14;;;;;;;13.90;12.57;;;12.00;99.90;;;;;;6240591;23;20078;-44
2023/08/30 04:18:40;;;;;;;13.73;12.35;;;12.00;99.90;;;;;;6240697;23;20460;-44
2023/08/30 04:21:08;;;;;;;14.80;13.20;;;12.00;99.90;;;;;;6240257;23;20031;-45
2023/08/30 04:23:33;;;;;;;14.18;12.70;;;12.10;99.90;;;;;;6240310;22;20326;-43
2023/08/30 04:25:59;;;;;;;15.27;13.18;;;12.10;99.90;;;;;;6240665;23;20018;-45
2023/08/30 04:28:26;;;;;;;17.95;13.25;;;12.10;99.90;;;;;;6241450;23;20014;-43
2023/08/30 04:30:54;;;;;;;14.90;13.38;;;12.00;99.90;;;;;;6241529;22;20027;-44
2023/08/30 04:33:20;;;;;;;12.38;11.13;;;12.10;99.90;;;;;;6241008;22;20518;-44
2023/08/30 04:35:53;;;;;;;13.80;12.43;;;12.00;99.90;;;;;;6239099;23;20063;-43
2023/08/30 04:38:20;;;;;;;13.30;11.63;;;12.10;99.90;;;;;;6240143;22;20070;-43
2023/08/30 04:40:46;;;;;;;13.57;12.23;;;12.10;99.90;;;;;;6240140;22;20055;-44
2023/08/30 04:43:12;;;;;;;12.48;11.07;;;12.10;99.90;;;;;;6239735;22;20027;-44
2023/08/30 04:45:38;;;;;;;13.93;12.52;;;12.10;99.90;;;;;;6239192;23;20019;-46
2023/08/30 04:48:04;;;;;;;14.38;12.40;;;12.10;99.90;;;;;;6240896;23;20020;-43
2023/08/30 04:50:30;;;;;;;13.52;12.18;;;12.20;99.90;;;;;;6240427;22;20048;-43
2023/08/30 04:52:56;;;;;;;14.10;12.70;;;12.10;99.90;;;;;;6240710;23;20020;-43
2023/08/30 04:55:24;;;;;;;15.75;13.50;;;12.10;99.90;;;;;;6242536;22;20016;-44
2023/08/30 04:57:50;;;;;;;;;;;12.10;99.90;;;;;;6243620;22;20043;-43
2023/08/30 05:00:17;;;;;;;16.63;12.43;;;12.10;99.90;;;;;;6241787;23;19920;-43
2023/08/30 05:02:43;;;;;;;15.43;13.05;;;12.10;99.90;;;;;;6243083;22;20066;-43
2023/08/30 05:05:09;;;;;;;14.75;13.25;;;12.10;99.90;;;;;;6242383;22;20020;-45
2023/08/30 05:07:35;;;;;;;12.98;11.68;;;12.10;99.90;;;;;;6242166;23;20023;-42
2023/08/30 05:10:01;;;;;;;14.05;12.63;;;12.10;99.90;;;;;;6241631;23;20020;-44
2023/08/30 05:12:27;;;;;;;14.75;13.30;;;12.20;99.90;;;;;;6244215;22;20399;-42
2023/08/30 05:14:53;;;;;;;14.50;12.82;;;12.20;99.90;;;;;;6244561;23;20012;-43
2023/08/30 05:17:18;;;;;;;15.77;13.27;;;12.30;99.90;;;;;;6244708;23;20024;-45
2023/08/30 05:19:44;;;;;;;14.98;13.50;;;12.30;99.90;;;;;;6247314;23;20019;-46
2023/08/30 05:22:09;;;;;;;14.50;13.00;;;12.40;99.90;;;;;;6247415;23;20016;-44
2023/08/30 05:24:35;;;;;;;16.17;13.25;;;12.50;99.90;;;;;;6245323;23;20020;-44
2023/08/30 05:27:02;;;;;;;15.20;13.80;;;12.50;99.90;;;;;;6247267;23;20046;-43
2023/08/30 05:29:28;;;;;;;15.20;13.68;;;12.50;99.90;;;;;;6246958;23;20008;-44
2023/08/30 05:31:53;;;;;;;14.63;13.23;;;12.60;99.90;;;;;;6247291;23;20317;-45
2023/08/30 05:34:19;;;;;;;14.73;13.30;;;12.60;99.90;;;;;;6246786;23;20074;-43
2023/08/30 05:36:45;;;;;;;16.35;14.07;;;12.80;99.90;;;;;;6246559;23;20097;-43
2023/08/30 05:39:11;;;;;;;15.48;13.90;;;12.80;99.90;;;;;;6247022;23;20016;-43
2023/08/30 05:41:37;;;;;;;14.90;13.43;;;12.80;99.90;;;;;;6247313;22;20092;-46
2023/08/30 05:44:03;;;;;;;15.30;13.48;;;12.90;99.90;;;;;;6247228;23;20051;-43
2023/08/30 05:46:28;;;;;;;15.27;13.68;;;12.90;99.90;;;;;;6244867;23;20352;-43
2023/08/30 05:48:54;;;;;;;15.68;14.07;;;13.00;99.90;;;;;;6240538;23;20095;-43
2023/08/30 05:51:20;;;;;;;15.18;13.57;;;13.00;99.90;;;;;;6244658;23;20091;-45
2023/08/30 05:53:46;;;;;;;16.27;14.43;;;;;;;;;;6243173;23;20012;-45
2023/08/30 05:56:11;;;;;;;15.77;14.05;;;12.90;99.90;;;;;;6243126;23;20069;-44
2023/08/30 05:58:38;;;;;;;17.80;14.40;;;13.30;99.90;;;;;;6244545;23;20012;-43
2023/08/30 06:01:06;;;;;;;15.27;13.68;;;13.30;99.90;;;;;;6244213;22;20027;-45
2023/08/30 06:03:31;;;;;;;15.98;14.27;;;13.40;99.90;;;;;;6244356;22;20027;-44
2023/08/30 06:05:57;;;;;;;15.25;13.65;;;13.40;99.90;;;;;;6242964;23;20399;-42
2023/08/30 06:08:23;;;;;;;15.90;14.25;;;13.50;99.90;;;;;;6244148;22;20314;-44
2023/08/30 06:10:50;;;;;;;16.30;14.52;;;13.50;99.90;;;;;;6243529;22;20036;-44
2023/08/30 06:13:15;;;;;;;17.17;14.27;;;13.60;99.90;;;;;;6244083;23;20021;-44
2023/08/30 06:15:41;;;;;;;19.45;14.43;;;13.60;99.90;;;;;;6242353;22;20398;-43
2023/08/30 06:18:07;;;;;;;16.50;14.25;;;13.70;99.90;;;;;;6243072;23;20041;-43
2023/08/30 06:20:33;;;;;;;17.13;13.85;;;13.80;99.90;;;;;;6240223;23;20094;-44
2023/08/30 06:22:59;;;;;;;15.57;13.98;;;13.80;99.90;;;;;;6243571;23;20020;-47
2023/08/30 06:25:25;;;;;;;17.17;14.00;;;;;;;;;;6245385;22;20019;-46
2023/08/30 06:28:02;;;;;;;18.30;14.80;;;13.90;99.90;;;;;;6246309;23;20087;-45
2023/08/30 06:30:29;;;;;;;17.67;15.45;;;14.00;99.90;;;;;;6241868;23;20070;-43
2023/08/30 06:32:55;;;;;;;15.65;14.07;;;14.10;99.90;;;;;;6244724;22;20016;-43
2023/08/30 06:35:21;;;;;;;16.95;14.63;;;14.10;99.90;;;;;;6244076;22;20066;-43
2023/08/30 06:37:47;;;;;;;15.68;14.15;;;14.20;99.90;;;;;;6216963;23;20466;-44
2023/08/30 06:40:13;;;;;;;15.63;13.60;;;14.30;99.90;;;;;;6241095;23;20044;-43
2023/08/30 06:42:38;;;;;;;15.38;13.77;;;14.30;99.90;;;;;;6243445;23;20020;-43
2023/08/30 06:45:05;;;;;;;15.38;13.88;;;14.40;99.90;;;;;;6241734;23;20019;-43
2023/08/30 06:47:30;;;;;;;15.02;13.57;;;14.50;99.90;;;;;;6244156;22;20018;-46
2023/08/30 06:49:59;;;;;;;15.00;13.60;;;;;;;;;;6241818;23;20016;-45
2023/08/30 06:52:24;;;;;;;15.57;13.30;;;15.40;99.90;;;;;;6241301;23;20031;-45
2023/08/30 06:54:50;;;;;;;15.60;14.00;;;15.70;99.90;;;;;;6241493;23;20023;-43
2023/08/30 06:57:16;;;;;;;15.15;13.55;;;16.10;99.90;;;;;;6244546;23;20095;-44
2023/08/30 06:59:42;;;;;;;14.55;13.07;;;16.40;99.90;;;;;;6245974;23;20016;-47
2023/08/30 07:02:08;;;;;;;18.23;13.27;;;16.60;99.90;;;;;;6246092;22;20061;-44
2023/08/30 07:04:34;;;;;;;15.13;12.57;;;17.20;99.90;;;;;;6245959;22;20044;-44
2023/08/30 07:06:59;;;;;;;13.77;12.38;;;17.40;99.90;;;;;;6246339;23;20044;-44
2023/08/30 07:09:28;;;;;;;12.85;11.55;;;;;;;;;;6246185;23;20016;-43
2023/08/30 07:11:57;;;;;;;12.68;11.43;;;18.30;99.90;;;;;;6246320;22;20019;-47
2023/08/30 07:14:23;;;;;;;12.60;11.32;;;19.30;99.90;;;;;;6245676;22;20087;-43
2023/08/30 07:16:49;;;;;;;12.82;11.52;;;19.90;99.90;;;;;;6245973;22;20070;-44
2023/08/30 07:19:18;;;;;;;12.43;10.75;;;20.40;99.90;;;;;;6246091;22;20333;-43
2023/08/30 07:21:44;;;;;;;12.65;11.45;;;20.10;99.90;;;;;;6246331;22;20014;-45
2023/08/30 07:24:09;;;;;;;12.45;11.05;;;19.90;99.90;;;;;;6218844;23;20048;-45
2023/08/30 07:26:36;;;;;;;12.48;11.27;;;19.50;99.90;;;;;;6245593;23;20467;-45
2023/08/30 07:29:04;;;;;;;12.25;11.00;;;19.00;99.90;;;;;;6241632;23;20047;-43
2023/08/30 07:31:31;;;;;;;11.85;10.68;;;18.80;99.90;;;;;;6243544;22;20379;-45
2023/08/30 07:33:58;;;;;;;13.40;12.00;;;18.50;99.90;;;;;;6243930;22;20044;-44
2023/08/30 07:36:24;;;;;;;12.10;10.88;;;;;;;;;;6240864;22;20467;-44
2023/08/30 07:38:50;;;;;;;12.05;10.80;;;18.10;99.90;;;;;;6241852;23;20031;-43
2023/08/30 07:41:16;;;;;;;13.35;11.07;;;;;;;;;;6241707;23;20012;-44
2023/08/30 07:43:42;;;;;;;11.75;10.57;;;17.70;99.90;;;;;;6243866;22;20333;-43
2023/08/30 07:46:07;;;;;;;12.63;11.32;;;17.60;99.90;;;;;;6243091;23;20020;-46
2023/08/30 07:48:33;;;;;;;12.52;11.32;;;17.60;99.90;;;;;;6241974;23;20016;-44
2023/08/30 07:50:58;;;;;;;13.73;11.75;;;17.60;99.90;;;;;;6242667;23;20027;-42
2023/08/30 07:53:24;;;;;;;13.10;11.70;;;17.70;99.90;;;;;;6242613;23;20020;-43
2023/08/30 07:55:50;;;;;;;12.68;11.25;;;18.00;99.90;;;;;;6244164;23;20012;-44
2023/08/30 07:58:17;;;;;;;12.95;11.52;;;18.20;99.90;;;;;;6242176;23;20110;-42
2023/08/30 08:00:43;;;;;;;13.20;11.77;;;18.30;99.90;;;;;;6239692;22;20149;-43
2023/08/30 08:03:10;;;;;;;13.15;11.82;;;18.50;99.90;;;;;;6242565;22;20313;-43
2023/08/30 08:05:36;;;;;;;12.88;11.38;;;18.90;99.90;;;;;;6242982;22;20032;-44
2023/08/30 08:08:02;;;;;;;12.20;10.90;;;19.00;99.90;;;;;;6242790;22;20055;-44
2023/08/30 08:10:32;;;;;;;12.95;11.23;;;19.00;99.90;;;;;;6241832;22;20425;-43
2023/08/30 08:12:58;;;;;;;12.30;11.07;;;;;;;;;;6242167;22;20024;-44
2023/08/30 08:15:23;;;;;;;12.70;11.43;;;19.30;99.90;;;;;;6243924;23;20024;-43
2023/08/30 08:17:49;;;;;;;14.25;12.02;;;19.20;99.90;;;;;;6242269;23;20019;-43
2023/08/30 08:20:15;;;;;;;12.60;11.38;;;18.90;99.90;;;;;;6242619;22;20019;-43
2023/08/30 08:22:40;;;;;;;12.43;11.15;;;18.90;99.90;;;;;;6242329;23;20052;-45
2023/08/30 08:25:09;;;;;;;12.38;11.05;;;18.90;99.90;;;;;;6243332;23;20016;-44
2023/08/30 08:27:36;;;;;;;13.50;11.60;;;18.70;99.90;;;;;;6244400;22;20016;-42
2023/08/30 08:30:03;;;;;;;13.20;11.88;;;18.80;99.90;;;;;;6241352;22;20012;-44
2023/08/30 08:32:30;;;;;;;12.82;11.52;;;18.70;99.90;;;;;;6241940;22;20529;-43
2023/08/30 08:34:56;;;;;;;12.70;11.38;;;18.50;99.90;;;;;;6241598;22;20012;-43
2023/08/30 08:37:22;;;;;;;12.80;11.50;;;18.40;99.90;;;;;;6241572;22;20081;-44
2023/08/30 08:39:49;;;;;;;13.00;11.57;;;18.10;99.90;;;;;;6242081;23;20103;-43
2023/08/30 08:42:18;;;;;;;13.73;11.45;;;18.00;99.90;;;;;;6241694;22;20472;-44
2023/08/30 08:44:46;;;;;;;16.05;11.18;;;17.90;99.90;;;;;;6241814;22;20478;-44
2023/08/30 08:47:12;;;;;;;12.88;11.30;;;17.80;99.90;;;;;;6240727;22;20094;-45
2023/08/30 08:49:38;;;;;;;12.32;11.13;;;17.70;99.90;;;;;;6240976;23;20090;-43
2023/08/30 08:52:04;;;;;;;13.13;10.98;;;17.60;99.90;;;;;;6241449;23;20016;-42
2023/08/30 08:54:30;;;;;;;12.65;11.32;;;17.60;99.90;;;;;;6243649;22;20027;-42
2023/08/30 08:56:56;;;;;;;12.30;10.82;;;17.60;99.90;;;;;;6243943;23;20016;-43
2023/08/30 08:59:23;;;;;;;13.27;11.15;;;17.60;99.90;;;;;;6246233;22;20070;-43
2023/08/30 09:01:49;;;;;;;13.45;11.20;;;17.60;99.90;;;;;;6245805;22;20106;-43
2023/08/30 09:04:15;;;;;;;13.90;9.95;;;17.60;99.90;;;;;;6245778;22;20309;-43
2023/08/30 09:06:41;;;;;;;11.98;9.88;;;17.60;99.90;;;;;;6242951;23;20030;-43
2023/08/30 09:09:08;;;;;;;10.68;9.68;;;17.40;99.90;;;;;;6243141;22;20015;-43
2023/08/30 09:11:34;;;;;;;11.40;10.25;;;17.30;99.90;;;;;;6239728;23;20051;-45
2023/08/30 09:14:00;;;;;;;10.88;9.80;;;17.20;99.90;;;;;;6242243;22;20320;-44
2023/08/30 09:16:26;;;;;;;11.13;10.02;;;17.10;99.90;;;;;;6240807;23;20016;-47
2023/08/30 09:19:02;;;;;;;11.15;10.05;;;16.90;99.90;;;;;;6244236;23;20016;-44
2023/08/30 09:21:28;;;;;;;13.40;10.65;;;16.80;99.90;;;;;;6241613;22;20178;-44
2023/08/30 09:24:05;;;;;;;11.52;10.30;;;16.70;99.90;;;;;;6243782;23;20051;-43
2023/08/30 09:26:32;;;;;;;14.90;11.43;;;16.60;99.90;;;;;;6245178;22;20027;-45
2023/08/30 09:29:05;;;;;;;12.75;11.27;;;16.60;99.90;;;;;;6245382;22;20013;-44
2023/08/30 09:31:38;;;;;;;12.60;10.75;;;16.50;99.90;;;;;;6245753;22;20016;-45
2023/08/30 09:34:04;;;;;;;12.45;11.15;;;16.40;99.90;;;;;;6244698;23;20008;-43
2023/08/30 09:36:40;;;;;;;12.55;11.13;;;16.20;99.90;;;;;;6243972;22;20437;-43
2023/08/30 09:39:10;;;;;;;12.70;11.00;;;16.10;99.90;;;;;;6243966;22;20322;-44
2023/08/30 09:41:43;;;;;;;12.18;10.98;;;16.00;99.90;;;;;;6245008;22;20055;-45
2023/08/30 09:44:21;;;;;;;11.93;10.05;;;16.00;99.90;;;;;;6243839;23;20314;-44
2023/08/30 09:46:55;;;;;;;11.43;10.30;;;15.90;99.90;;;;;;6242702;23;20023;-43
2023/08/30 09:49:25;;;;;;;11.55;9.88;;;16.00;99.90;;;;;;6243741;22;20024;-44
2023/08/30 09:51:52;;;;;;;11.30;10.20;;;16.00;99.90;;;;;;6242250;22;20020;-42
2023/08/30 09:54:19;;;;;;;12.48;11.27;;;16.00;99.90;;;;;;6243905;22;20024;-44
2023/08/30 09:56:46;;;;;;;11.27;10.27;;;16.20;99.90;;;;;;6244203;22;20448;-44
2023/08/30 09:59:14;;;;;;;10.50;9.50;;;16.20;99.90;;;;;;6244073;22;20012;-45
2023/08/30 10:01:41;;;;;;;11.13;10.10;;;16.30;99.90;;;;;;6244403;22;20316;-43
2023/08/30 10:04:10;;;;;;;12.02;10.20;;;16.20;99.90;;;;;;6242609;22;20012;-44
2023/08/30 10:06:40;;;;;;;10.80;9.63;;;16.40;99.90;;;;;;6245184;22;20027;-44
2023/08/30 10:09:10;;;;;;;11.07;9.93;;;16.40;99.90;;;;;;6245775;22;20016;-46
2023/08/30 10:11:37;;;;;;;10.90;9.90;;;16.60;99.90;;;;;;6245092;22;20012;-43
2023/08/30 10:14:07;;;;;;;10.82;9.55;;;16.70;99.90;;;;;;6244403;22;20016;-43
2023/08/30 10:16:48;;;;;;;10.40;9.40;;;16.80;99.90;;;;;;6242543;22;20013;-44
2023/08/30 10:19:23;;;;;;;10.95;9.95;;;16.70;99.90;;;;;;6244112;22;20019;-43
2023/08/30 10:22:14;;;;;;;9.98;8.88;;;16.80;99.90;;;;;;6244138;22;20024;-43
2023/08/30 10:25:07;;;;;;;9.68;8.68;;;16.70;99.90;;;;;;6242474;23;20016;-44
2023/08/30 10:27:36;;;;;;;9.02;8.25;;;16.80;99.90;;;;;;6242610;22;20044;-44
2023/08/30 10:30:04;;;;;;;9.93;8.90;;;16.70;99.90;;;;;;6243620;22;20027;-43
2023/08/30 10:32:31;;;;;;;10.15;8.57;;;16.60;99.90;;;;;;6244051;22;20020;-43
2023/08/30 10:35:01;;;;;;;9.68;8.68;;;16.40;99.90;;;;;;6244410;22;20020;-43
2023/08/30 10:37:27;;;;;;;9.48;8.57;;;16.40;99.90;;;;;;6243952;22;20017;-43
2023/08/30 10:39:58;;;;;;;10.25;9.18;;;16.40;99.90;;;;;;6241589;22;20018;-44
2023/08/30 10:42:24;;;;;;;9.70;8.70;;;16.30;99.90;;;;;;6240744;22;20017;-43
2023/08/30 10:45:05;;;;;;;11.15;9.30;;;16.40;99.90;;;;;;6240276;23;20504;-44
2023/08/30 10:47:32;;;;;;;10.15;8.90;;;16.30;99.90;;;;;;6240194;22;20012;-43
2023/08/30 10:50:04;;;;;;;10.95;9.95;;;16.30;99.90;;;;;;6240120;22;20466;-43
2023/08/30 10:52:30;;;;;;;10.32;9.25;;;16.30;99.90;;;;;;6240358;22;20024;-44
2023/08/30 10:55:14;;;;;;;11.20;9.85;;;16.20;99.90;;;;;;6240872;22;20012;-43
2023/08/30 10:57:45;;;;;;;11.82;10.65;;;16.00;99.90;;;;;;6241235;22;20069;-43
2023/08/30 11:00:23;;;;;;;11.00;10.00;;;15.90;99.90;;;;;;6239997;22;20016;-44
2023/08/30 11:02:50;;;;;;;12.85;11.57;;;15.90;99.90;;;;;;6241239;22;20020;-44
2023/08/30 11:05:17;;;;;;;12.50;11.13;;;15.80;99.90;;;;;;6240555;22;20087;-43
2023/08/30 11:07:46;;;;;;;13.90;12.52;;;15.70;99.90;;;;;;6238556;23;20016;-43
2023/08/30 11:10:12;;;;;;;13.48;12.20;;;15.70;99.90;;;;;;6242110;22;20047;-43
2023/08/30 11:12:43;;;;;;;15.05;12.48;;;15.60;99.90;;;;;;6243850;22;20042;-42
2023/08/30 11:15:10;;;;;;;13.10;11.80;;;15.70;99.90;;;;;;6243581;22;20035;-42
2023/08/30 11:17:36;;;;;;;13.30;11.93;;;15.70;99.90;;;;;;6241158;23;20023;-43
2023/08/30 11:20:16;;;;;;;13.45;12.13;;;15.70;99.90;;;;;;6239947;23;20008;-42
2023/08/30 11:22:44;;;;;;;16.27;14.68;;;15.70;99.90;;;;;;6239152;23;20012;-43
2023/08/30 11:25:11;;;;;;;14.55;12.18;;;15.70;99.90;;;;;;6239043;23;20015;-43
2023/08/30 11:27:38;;;;;;;13.32;12.02;;;15.80;99.90;;;;;;6240086;23;20039;-42
2023/08/30 11:30:05;;;;;;;14.32;12.82;;;15.90;99.90;;;;;;6244833;22;20012;-47
2023/08/30 11:32:34;;;;;;;13.90;12.50;;;15.90;99.90;;;;;;6242549;23;20012;-43
2023/08/30 11:35:00;;;;;;;12.30;11.20;;;15.90;99.90;;;;;;6244252;22;20348;-44
2023/08/30 11:37:30;;;;;;;11.27;10.18;;;15.90;99.90;;;;;;6241968;23;20012;-44
2023/08/30 11:39:56;;;;;;;11.43;10.43;;;15.90;99.90;;;;;;6243162;22;20023;-43
2023/08/30 11:42:22;;;;;;;11.52;10.43;;;15.90;99.90;;;;;;6243064;22;20476;-45
2023/08/30 11:44:49;;;;;;;10.43;9.52;;;15.90;99.90;;;;;;6241514;22;20021;-43
2023/08/30 11:47:19;;;;;;;10.70;9.80;;;15.80;99.90;;;;;;6243544;22;20091;-45
2023/08/30 11:49:47;;;;;;;10.45;9.45;;;15.80;99.90;;;;;;6240245;23;20106;-45
2023/08/30 11:52:13;;;;;;;;;;;15.80;99.90;;;;;;6242472;22;20159;-43
2023/08/30 11:54:39;;;;;;;9.88;8.98;;;15.70;99.90;;;;;;6242869;22;20008;-44
2023/08/30 11:57:05;;;;;;;9.95;9.05;;;15.80;99.90;;;;;;6242175;22;20483;-44
2023/08/30 11:59:35;;;;;;;10.00;9.10;;;15.80;99.90;;;;;;6241205;22;20016;-43
2023/08/30 12:02:03;;;;;;;10.20;9.30;;;15.80;99.90;;;;;;6242527;22;20016;-46
2023/08/30 12:04:29;;;;;;;9.90;9.10;;;15.90;99.90;;;;;;6241848;22;20009;-44
2023/08/30 12:06:55;;;;;;;9.18;8.43;;;15.90;99.90;;;;;;6215463;23;20124;-43
2023/08/30 12:09:21;;;;;;;9.35;8.63;;;15.90;99.90;;;;;;6242236;23;20091;-43
2023/08/30 12:11:50;;;;;;;9.50;8.70;;;15.90;99.90;;;;;;6216111;23;20020;-44
2023/08/30 12:14:16;;;;;;;8.43;7.72;;;15.80;99.90;;;;;;6242461;23;20052;-43
2023/08/30 12:16:42;;;;;;;8.70;7.90;;;15.80;99.90;;;;;;6242294;23;20012;-42
2023/08/30 12:19:12;;;;;;;8.18;7.55;;;15.90;99.90;;;;;;6241607;23;20039;-44
2023/08/30 12:21:42;;;;;;;8.57;7.88;;;16.00;99.90;;;;;;6242118;23;20488;-43
2023/08/30 12:24:08;;;;;;;7.53;6.93;;;16.10;99.90;;;;;;6241008;23;20020;-43
2023/08/30 12:26:34;;;;;;;7.07;6.55;;;16.20;99.90;;;;;;6244630;23;20095;-43
2023/08/30 12:28:59;;;;;;;7.50;7.00;;;16.20;99.90;;;;;;6242356;23;20063;-42
2023/08/30 12:31:27;;;;;;;7.50;6.90;;;16.30;99.90;;;;;;6244274;23;20044;-43
2023/08/30 12:33:54;;;;;;;7.57;6.97;;;16.30;99.90;;;;;;6240213;23;20067;-43
2023/08/30 12:36:20;;;;;;;7.18;6.57;;;16.30;99.90;;;;;;6242447;23;20139;-42
2023/08/30 12:38:45;;;;;;;7.32;6.75;;;16.30;99.90;;;;;;6243219;23;20142;-44
2023/08/30 12:41:11;;;;;;;6.95;6.35;;;16.30;99.90;;;;;;6242058;23;20016;-42
2023/08/30 12:43:36;;;;;;;7.05;6.35;;;16.40;99.90;;;;;;6242549;23;20012;-44
2023/08/30 12:46:04;;;;;;;6.80;6.20;;;16.40;99.90;;;;;;6241727;23;20091;-43